Time;durP1;ratioP1;P1;durP2;ratioP2;P2;SDS_P1;SDS_P2;PMS_P1;PMS_P2;Temp;Humidity;BMP_temperature;BMP_pressure;BME280_temperature;BME280_humidity;BME280_pressure;Samples;Min_cycle;Max_cycle;Signal;HPM_P1;HPM_P2
2022/07/03 00:01:09;;;;;;;2.47;1.70;;;19.80;66.80;;;;;;4861124;29;20295;-63
2022/07/03 00:03:34;;;;;;;2.43;1.63;;;19.70;66.50;;;;;;4862450;29;20207;-63
2022/07/03 00:06:00;;;;;;;2.53;1.70;;;19.70;66.40;;;;;;4854958;29;20204;-62
2022/07/03 00:08:26;;;;;;;3.00;1.60;;;19.70;66.60;;;;;;4851714;29;20196;-62
2022/07/03 00:10:51;;;;;;;3.23;2.00;;;19.70;66.60;;;;;;4852121;29;20220;-62
2022/07/03 00:13:17;;;;;;;2.50;1.70;;;19.70;66.60;;;;;;4866147;29;20206;-62
2022/07/03 00:15:43;;;;;;;1.73;1.63;;;19.60;66.60;;;;;;4843620;29;20252;-62
2022/07/03 00:18:10;;;;;;;1.80;1.70;;;19.60;66.70;;;;;;4872141;29;20200;-62
2022/07/03 00:20:43;;;;;;;1.70;1.60;;;19.60;66.90;;;;;;4864627;29;20193;-62
2022/07/03 00:23:13;;;;;;;4.33;1.80;;;19.50;67.20;;;;;;4880352;29;20220;-62
2022/07/03 00:25:40;;;;;;;2.57;1.70;;;19.50;67.00;;;;;;4892065;29;20196;-62
2022/07/03 00:28:07;;;;;;;1.70;1.60;;;19.50;67.00;;;;;;4866521;29;20372;-62
2022/07/03 00:30:34;;;;;;;1.77;1.63;;;19.50;67.10;;;;;;4896221;29;20342;-62
2022/07/03 00:33:03;;;;;;;1.63;1.53;;;19.50;67.50;;;;;;4869502;29;20260;-62
2022/07/03 00:35:32;;;;;;;2.30;2.10;;;19.40;67.70;;;;;;4866149;29;20192;-62
2022/07/03 00:37:58;;;;;;;1.87;1.53;;;19.40;67.60;;;;;;4882879;29;20191;-62
2022/07/03 00:40:24;;;;;;;2.30;2.00;;;19.40;67.60;;;;;;4850968;29;20200;-63
2022/07/03 00:42:53;;;;;;;1.87;1.77;;;19.30;67.30;;;;;;4864130;29;20189;-62
2022/07/03 00:45:20;;;;;;;2.63;1.80;;;19.40;67.60;;;;;;4860026;29;20195;-62
2022/07/03 00:47:47;;;;;;;1.80;1.70;;;19.40;67.30;;;;;;4867007;29;20275;-62
2022/07/03 00:50:14;;;;;;;1.77;1.60;;;19.30;67.30;;;;;;4865726;29;20233;-62
2022/07/03 00:52:46;;;;;;;1.60;1.50;;;19.30;67.70;;;;;;4887064;29;20184;-62
2022/07/03 00:55:16;;;;;;;3.27;1.90;;;19.30;67.60;;;;;;4873665;29;20230;-62
2022/07/03 00:57:47;;;;;;;2.17;1.97;;;19.20;67.70;;;;;;4866027;29;20208;-62
2022/07/03 01:00:14;;;;;;;2.17;1.97;;;19.20;67.50;;;;;;4866648;29;20196;-62
2022/07/03 01:02:40;;;;;;;1.60;1.50;;;19.10;67.90;;;;;;4866236;29;20259;-62
2022/07/03 01:05:34;;;;;;;2.00;1.90;;;18.90;68.30;;;;;;4881699;29;20237;-62
2022/07/03 01:08:45;;;;;;;3.00;1.80;;;18.90;68.70;;;;;;4882045;29;20188;-62
2022/07/03 01:11:43;;;;;;;1.93;1.83;;;19.00;68.10;;;;;;4897721;29;20208;-62
2022/07/03 01:14:28;;;;;;;1.77;1.67;;;19.00;67.60;;;;;;4881540;29;20199;-62
2022/07/03 01:16:56;;;;;;;2.60;1.80;;;19.00;67.60;;;;;;4882013;29;20224;-62
2022/07/03 01:19:42;;;;;;;1.80;1.70;;;18.80;67.50;;;;;;4873875;29;20199;-62
2022/07/03 01:22:11;;;;;;;1.90;1.80;;;18.90;67.10;;;;;;4864030;29;20292;-62
2022/07/03 01:25:04;;;;;;;1.67;1.57;;;18.90;67.00;;;;;;4882070;29;20239;-62
2022/07/03 01:27:58;;;;;;;1.87;1.63;;;18.90;66.90;;;;;;4881147;29;20258;-62
2022/07/03 01:30:27;;;;;;;3.90;1.90;;;18.80;67.70;;;;;;4883958;29;20199;-62
2022/07/03 01:33:01;;;;;;;1.80;1.63;;;18.80;67.30;;;;;;4885329;29;20224;-62
2022/07/03 01:35:32;;;;;;;1.70;1.60;;;18.80;67.50;;;;;;4884936;29;20191;-62
2022/07/03 01:38:02;;;;;;;2.27;1.97;;;18.80;67.60;;;;;;4880199;29;20200;-63
2022/07/03 01:40:28;;;;;;;2.00;1.90;;;18.70;67.90;;;;;;4896456;29;20207;-62
2022/07/03 01:42:56;;;;;;;2.00;1.80;;;18.80;68.00;;;;;;4868882;29;20199;-62
2022/07/03 01:45:26;;;;;;;2.40;2.20;;;18.80;68.00;;;;;;4885053;29;20216;-62
2022/07/03 01:47:52;;;;;;;2.63;2.43;;;18.70;68.40;;;;;;4871961;29;20188;-62
2022/07/03 01:50:21;;;;;;;2.10;1.80;;;18.60;68.80;;;;;;4884905;29;20243;-62
2022/07/03 01:52:49;;;;;;;1.87;1.77;;;18.70;68.70;;;;;;4885105;29;20184;-62
2022/07/03 01:55:15;;;;;;;1.70;1.60;;;18.70;68.80;;;;;;4854225;29;20199;-62
2022/07/03 01:57:49;;;;;;;2.13;1.93;;;18.60;68.90;;;;;;4864267;29;20185;-62
2022/07/03 02:00:25;;;;;;;2.17;1.97;;;18.60;69.10;;;;;;4881344;29;20211;-62
2022/07/03 02:03:04;;;;;;;1.80;1.70;;;18.60;69.10;;;;;;4880320;29;20231;-62
2022/07/03 02:05:41;;;;;;;1.97;1.60;;;18.50;69.60;;;;;;4883441;29;20191;-62
2022/07/03 02:08:10;;;;;;;1.83;1.70;;;18.50;69.30;;;;;;4878717;29;20251;-62
2022/07/03 02:10:46;;;;;;;2.10;1.90;;;18.50;69.20;;;;;;4883712;29;20220;-62
2022/07/03 02:13:28;;;;;;;2.27;2.10;;;18.40;69.70;;;;;;4884543;29;20191;-62
2022/07/03 02:15:58;;;;;;;1.87;1.77;;;18.40;69.80;;;;;;4877144;29;20195;-62
2022/07/03 02:18:28;;;;;;;3.47;1.90;;;18.40;69.70;;;;;;4883512;29;20192;-63
2022/07/03 02:21:16;;;;;;;2.00;1.90;;;18.30;70.20;;;;;;4873224;29;20207;-62
2022/07/03 02:24:27;;;;;;;2.60;1.97;;;18.30;70.10;;;;;;4884643;29;20203;-62
2022/07/03 02:27:04;;;;;;;2.23;2.03;;;18.30;70.20;;;;;;4879202;29;20242;-62
2022/07/03 02:29:46;;;;;;;1.80;1.67;;;18.30;70.50;;;;;;4884401;29;20207;-62
2022/07/03 02:32:17;;;;;;;3.20;2.00;;;18.20;70.80;;;;;;4889757;29;20212;-62
2022/07/03 02:35:14;;;;;;;2.97;1.90;;;18.30;70.60;;;;;;4884282;29;20196;-63
2022/07/03 02:37:47;;;;;;;2.00;1.80;;;18.30;70.60;;;;;;4862747;29;20204;-62
2022/07/03 02:40:34;;;;;;;1.80;1.70;;;18.30;70.50;;;;;;4888199;29;20198;-62
2022/07/03 02:43:24;;;;;;;3.60;2.17;;;18.20;70.50;;;;;;4882609;29;20225;-63
2022/07/03 02:46:00;;;;;;;2.43;1.90;;;18.20;71.00;;;;;;4875985;29;20223;-62
2022/07/03 02:48:39;;;;;;;2.53;2.30;;;18.20;70.70;;;;;;4874840;29;20180;-63
2022/07/03 02:51:13;;;;;;;2.10;1.90;;;18.20;70.80;;;;;;4872233;29;20273;-62
2022/07/03 02:53:44;;;;;;;2.20;1.97;;;18.20;71.00;;;;;;4876733;29;20216;-62
2022/07/03 02:56:51;;;;;;;2.77;1.90;;;18.20;71.30;;;;;;4877942;29;20188;-62
2022/07/03 02:59:54;;;;;;;2.30;2.10;;;18.20;71.40;;;;;;4864510;29;20204;-62
2022/07/03 03:02:25;;;;;;;2.17;2.03;;;18.10;71.60;;;;;;4874411;29;20198;-62
2022/07/03 03:05:17;;;;;;;2.03;1.80;;;18.20;71.80;;;;;;4883324;29;20196;-62
2022/07/03 03:08:04;;;;;;;2.13;1.73;;;18.20;71.70;;;;;;4883759;29;20200;-63
2022/07/03 03:10:35;;;;;;;2.27;2.07;;;18.20;71.90;;;;;;4878865;29;20196;-62
2022/07/03 03:13:06;;;;;;;2.40;2.20;;;18.10;71.90;;;;;;4868515;29;20195;-62
2022/07/03 03:15:33;;;;;;;2.13;1.93;;;18.10;71.90;;;;;;4883858;29;20195;-62
2022/07/03 03:18:11;;;;;;;2.10;1.90;;;18.00;72.40;;;;;;4852476;29;20196;-62
2022/07/03 03:20:38;;;;;;;2.47;2.27;;;18.10;72.50;;;;;;4883086;29;20275;-62
2022/07/03 03:23:13;;;;;;;2.00;1.90;;;18.10;72.40;;;;;;4868491;29;20196;-62
2022/07/03 03:25:39;;;;;;;2.40;2.20;;;18.10;72.50;;;;;;4880911;29;20187;-62
2022/07/03 03:28:05;;;;;;;2.90;2.00;;;18.10;72.30;;;;;;4865904;29;20326;-62
2022/07/03 03:30:30;;;;;;;2.23;1.97;;;18.10;72.50;;;;;;4856019;29;20215;-62
2022/07/03 03:32:56;;;;;;;2.00;1.80;;;18.10;72.60;;;;;;4868149;29;20192;-62
2022/07/03 03:35:22;;;;;;;3.40;1.90;;;18.00;72.70;;;;;;4850295;29;20208;-63
2022/07/03 03:37:50;;;;;;;2.00;1.90;;;18.10;72.70;;;;;;4867022;29;20203;-62
2022/07/03 03:40:17;;;;;;;2.40;2.20;;;18.10;72.60;;;;;;4845417;29;20291;-62
2022/07/03 03:42:43;;;;;;;3.60;2.10;;;18.10;72.50;;;;;;4884474;29;20200;-62
2022/07/03 03:45:09;;;;;;;3.90;2.33;;;18.10;72.60;;;;;;4882192;29;20207;-62
2022/07/03 03:47:35;;;;;;;2.27;2.07;;;18.10;72.60;;;;;;4861894;29;20228;-62
2022/07/03 03:50:02;;;;;;;1.90;1.80;;;18.20;72.90;;;;;;4882630;29;20238;-62
2022/07/03 03:52:29;;;;;;;3.07;2.10;;;18.10;73.10;;;;;;4888887;29;20216;-62
2022/07/03 03:54:55;;;;;;;2.43;2.23;;;18.10;73.00;;;;;;4869735;29;20223;-62
2022/07/03 03:57:22;;;;;;;2.33;2.13;;;18.10;73.40;;;;;;4867458;29;20211;-63
2022/07/03 03:59:48;;;;;;;2.37;1.80;;;18.20;73.10;;;;;;4882725;29;20191;-62
2022/07/03 04:02:16;;;;;;;2.67;2.47;;;18.20;73.20;;;;;;4866810;29;20200;-62
2022/07/03 04:04:41;;;;;;;3.30;2.57;;;18.00;74.00;;;;;;4858572;29;20273;-62
2022/07/03 04:07:07;;;;;;;2.43;2.20;;;18.00;74.20;;;;;;4859641;29;20287;-62
2022/07/03 04:09:33;;;;;;;2.27;2.07;;;18.10;73.80;;;;;;4872443;29;20196;-62
2022/07/03 04:11:59;;;;;;;2.27;2.10;;;18.10;73.90;;;;;;4863786;29;20225;-62
2022/07/03 04:14:25;;;;;;;2.97;2.63;;;18.10;74.10;;;;;;4884982;29;20204;-63
2022/07/03 04:16:51;;;;;;;2.90;2.03;;;18.20;74.00;;;;;;4874144;29;20194;-62
2022/07/03 04:19:16;;;;;;;2.30;2.10;;;18.20;74.10;;;;;;4857587;29;20195;-62
2022/07/03 04:21:42;;;;;;;2.93;2.60;;;18.20;74.10;;;;;;4866822;29;20196;-62
2022/07/03 04:24:08;;;;;;;2.90;2.33;;;18.20;74.20;;;;;;4867121;29;20199;-62
2022/07/03 04:26:34;;;;;;;2.83;2.00;;;18.20;74.40;;;;;;4881890;29;20188;-63
2022/07/03 04:29:00;;;;;;;3.47;2.10;;;18.30;74.20;;;;;;4882617;29;20264;-63
2022/07/03 04:31:26;;;;;;;2.00;1.90;;;18.30;74.20;;;;;;4891815;29;20218;-63
2022/07/03 04:33:51;;;;;;;2.60;2.40;;;18.20;74.50;;;;;;4851570;29;20216;-63
2022/07/03 04:36:17;;;;;;;3.93;2.00;;;18.20;74.40;;;;;;4867265;29;20192;-62
2022/07/03 04:38:43;;;;;;;2.80;2.00;;;18.30;74.50;;;;;;4859332;29;20197;-63
2022/07/03 04:41:09;;;;;;;3.00;2.60;;;18.30;74.70;;;;;;4882017;29;20199;-62
2022/07/03 04:43:36;;;;;;;4.53;2.37;;;18.30;74.80;;;;;;4882140;29;20188;-63
2022/07/03 04:46:02;;;;;;;2.10;2.00;;;18.20;74.90;;;;;;4881652;29;20203;-63
2022/07/03 04:48:31;;;;;;;2.27;2.10;;;18.30;74.70;;;;;;4862146;29;20197;-63
2022/07/03 04:50:58;;;;;;;3.87;2.40;;;18.30;74.70;;;;;;4865305;29;20279;-63
2022/07/03 04:53:24;;;;;;;2.60;2.40;;;18.30;74.70;;;;;;4882479;29;20246;-63
2022/07/03 04:55:50;;;;;;;5.37;2.67;;;18.30;74.40;;;;;;4866319;29;20212;-62
2022/07/03 04:58:17;;;;;;;3.33;2.20;;;18.50;74.40;;;;;;4898764;29;20192;-63
2022/07/03 05:00:44;;;;;;;2.50;2.30;;;18.50;74.40;;;;;;4860821;29;20200;-64
2022/07/03 05:03:09;;;;;;;3.13;2.40;;;18.40;74.60;;;;;;4885534;29;20197;-65
2022/07/03 05:05:35;;;;;;;4.00;2.30;;;18.50;74.60;;;;;;4853068;29;20226;-67
2022/07/03 05:08:01;;;;;;;2.70;2.40;;;18.50;74.40;;;;;;4870335;29;20188;-67
2022/07/03 05:10:26;;;;;;;2.43;2.23;;;18.50;74.30;;;;;;4885774;29;20220;-67
2022/07/03 05:12:53;;;;;;;3.33;2.60;;;18.60;74.10;;;;;;4870260;29;20203;-66
2022/07/03 05:15:19;;;;;;;2.53;2.33;;;18.60;74.20;;;;;;4876076;29;20192;-65
2022/07/03 05:17:44;;;;;;;3.00;2.17;;;18.70;74.50;;;;;;4870231;29;20214;-64
2022/07/03 05:20:29;;;;;;;2.33;2.13;;;18.70;74.40;;;;;;4875369;29;20192;-64
2022/07/03 05:22:59;;;;;;;2.67;2.47;;;18.70;74.20;;;;;;4885413;29;20187;-64
2022/07/03 05:25:26;;;;;;;2.70;2.50;;;18.70;74.20;;;;;;4885540;29;20192;-64
2022/07/03 05:27:55;;;;;;;2.50;2.30;;;18.70;74.50;;;;;;4866258;29;20240;-64
2022/07/03 05:30:22;;;;;;;3.30;2.40;;;18.70;74.40;;;;;;4883258;29;20199;-64
2022/07/03 05:32:48;;;;;;;2.73;2.53;;;18.70;74.60;;;;;;4867306;29;20256;-64
2022/07/03 05:35:14;;;;;;;2.87;2.50;;;18.70;74.50;;;;;;4865199;29;20232;-64
2022/07/03 05:37:41;;;;;;;2.53;2.33;;;18.80;74.70;;;;;;4869261;29;20220;-64
2022/07/03 05:40:09;;;;;;;4.73;2.20;;;18.80;74.70;;;;;;4898165;29;20249;-64
2022/07/03 05:42:35;;;;;;;4.33;2.43;;;18.80;74.60;;;;;;4873448;29;20206;-65
2022/07/03 05:45:01;;;;;;;3.50;2.53;;;18.80;74.80;;;;;;4883890;29;20196;-64
2022/07/03 05:47:27;;;;;;;2.53;2.30;;;18.80;74.80;;;;;;4861088;29;20211;-63
2022/07/03 05:49:53;;;;;;;2.60;2.40;;;18.80;74.80;;;;;;4896773;29;20192;-64
2022/07/03 05:52:19;;;;;;;2.63;2.43;;;18.90;74.70;;;;;;4870300;29;20569;-64
2022/07/03 05:54:44;;;;;;;4.47;2.63;;;18.90;74.60;;;;;;4854699;29;20288;-63
2022/07/03 05:57:10;;;;;;;2.70;2.50;;;18.90;74.00;;;;;;4871877;29;20204;-63
2022/07/03 05:59:36;;;;;;;2.40;2.20;;;18.90;74.30;;;;;;4876799;29;20193;-64
2022/07/03 06:02:02;;;;;;;2.80;2.60;;;19.00;74.40;;;;;;4843026;29;20212;-63
2022/07/03 06:04:28;;;;;;;2.58;2.38;;;19.00;73.70;;;;;;4880086;29;20424;-62
2022/07/03 06:06:55;;;;;;;3.23;2.40;;;19.00;73.90;;;;;;4880645;29;20199;-63
2022/07/03 06:09:22;;;;;;;3.03;2.70;;;19.20;74.00;;;;;;4861871;29;20256;-64
2022/07/03 06:11:47;;;;;;;2.30;2.10;;;19.20;74.20;;;;;;4853993;29;20231;-63
2022/07/03 06:14:13;;;;;;;2.50;2.30;;;19.30;73.70;;;;;;4868839;29;20192;-64
2022/07/03 06:16:39;;;;;;;2.93;2.33;;;19.30;73.10;;;;;;4876360;29;20200;-64
2022/07/03 06:19:05;;;;;;;2.60;2.40;;;19.30;73.10;;;;;;4865228;29;20191;-63
2022/07/03 06:21:31;;;;;;;2.30;2.10;;;19.30;73.00;;;;;;4853917;29;20203;-63
2022/07/03 06:23:57;;;;;;;3.20;2.30;;;19.50;72.10;;;;;;4867993;29;20200;-62
2022/07/03 06:26:23;;;;;;;3.00;2.50;;;19.50;72.60;;;;;;4869271;29;20195;-63
2022/07/03 06:28:49;;;;;;;2.50;2.30;;;19.50;72.60;;;;;;4868450;29;20243;-64
2022/07/03 06:31:14;;;;;;;3.03;2.73;;;19.60;72.20;;;;;;4901018;29;20232;-63
2022/07/03 06:33:40;;;;;;;2.50;2.30;;;19.70;72.50;;;;;;4866397;29;20228;-63
2022/07/03 06:36:06;;;;;;;2.57;2.37;;;19.70;71.30;;;;;;4865854;29;20197;-65
2022/07/03 06:38:32;;;;;;;4.13;2.13;;;19.70;71.30;;;;;;4851526;29;20212;-63
2022/07/03 06:40:57;;;;;;;2.30;2.10;;;19.80;70.70;;;;;;4880532;29;20247;-63
2022/07/03 06:43:23;;;;;;;2.10;2.00;;;19.80;70.70;;;;;;4869038;29;20228;-63
2022/07/03 06:45:49;;;;;;;2.70;2.50;;;19.80;70.30;;;;;;4852520;29;20202;-63
2022/07/03 06:48:14;;;;;;;2.63;2.23;;;19.80;70.70;;;;;;4868660;29;20227;-63
2022/07/03 06:50:40;;;;;;;3.40;2.70;;;19.90;70.50;;;;;;4883127;29;20229;-62
2022/07/03 06:53:06;;;;;;;2.77;2.37;;;19.90;70.70;;;;;;4898101;29;20203;-62
2022/07/03 06:55:32;;;;;;;3.43;2.60;;;20.00;71.00;;;;;;4867791;29;20243;-62
2022/07/03 06:57:57;;;;;;;3.00;2.70;;;20.00;71.10;;;;;;4840999;29;20207;-64
2022/07/03 07:00:23;;;;;;;3.10;2.70;;;20.00;71.60;;;;;;4866998;29;20196;-62
2022/07/03 07:02:49;;;;;;;2.73;2.37;;;20.00;71.60;;;;;;4848344;29;20215;-64
2022/07/03 07:05:14;;;;;;;2.43;2.10;;;20.10;71.80;;;;;;4852359;29;20206;-64
2022/07/03 07:07:40;;;;;;;4.23;2.60;;;20.10;72.30;;;;;;4867515;29;20199;-65
2022/07/03 07:10:06;;;;;;;2.90;2.63;;;20.20;73.10;;;;;;4850064;29;20200;-67
2022/07/03 07:12:32;;;;;;;3.47;2.60;;;20.20;73.00;;;;;;4852375;29;20223;-67
2022/07/03 07:14:58;;;;;;;2.70;2.50;;;20.20;73.00;;;;;;4844238;29;20197;-64
2022/07/03 07:17:23;;;;;;;2.60;2.40;;;20.30;72.50;;;;;;4859626;29;20199;-62
2022/07/03 07:19:49;;;;;;;7.23;2.50;;;20.40;72.40;;;;;;4868325;29;20216;-65
2022/07/03 07:22:14;;;;;;;3.33;2.30;;;20.40;71.00;;;;;;4864244;29;20220;-64
2022/07/03 07:24:40;;;;;;;35.23;5.73;;;20.50;70.70;;;;;;4849843;29;20200;-64
2022/07/03 07:27:06;;;;;;;3.87;2.40;;;20.70;69.20;;;;;;4849082;29;20268;-65
2022/07/03 07:29:31;;;;;;;2.63;2.43;;;20.80;68.70;;;;;;4860382;29;20234;-63
2022/07/03 07:31:57;;;;;;;4.80;2.40;;;20.80;67.60;;;;;;4851297;29;20254;-62
2022/07/03 07:34:23;;;;;;;2.60;2.40;;;21.00;67.50;;;;;;4868203;29;20200;-61
2022/07/03 07:36:48;;;;;;;2.20;2.00;;;21.00;68.00;;;;;;4852091;29;20206;-61
2022/07/03 07:39:14;;;;;;;3.37;2.63;;;21.10;64.20;;;;;;4867688;29;20283;-61
2022/07/03 07:41:40;;;;;;;2.30;2.10;;;21.20;65.80;;;;;;4865496;29;20200;-62
2022/07/03 07:44:06;;;;;;;3.73;2.67;;;21.20;66.20;;;;;;4849211;29;20196;-64
2022/07/03 07:46:32;;;;;;;2.37;2.17;;;21.30;62.40;;;;;;4863834;29;20250;-62
2022/07/03 07:48:57;;;;;;;3.63;2.33;;;21.40;61.60;;;;;;4864537;29;20199;-62
2022/07/03 07:51:23;;;;;;;2.73;2.27;;;21.50;59.20;;;;;;4841123;29;20215;-62
2022/07/03 07:53:50;;;;;;;2.20;2.00;;;21.50;60.60;;;;;;4864056;29;20201;-62
2022/07/03 07:56:16;;;;;;;2.67;2.40;;;21.60;61.30;;;;;;4879019;29;20187;-62
2022/07/03 07:58:42;;;;;;;2.27;1.90;;;21.50;62.20;;;;;;4851955;29;20214;-62
2022/07/03 08:06:46;;;;;;;4.53;2.70;;;21.70;61.00;;;;;;4844655;29;20205;-64
2022/07/03 08:09:12;;;;;;;2.30;2.10;;;21.80;61.20;;;;;;4848186;29;20257;-65
2022/07/03 08:11:38;;;;;;;3.90;2.23;;;21.80;61.10;;;;;;4863620;29;20218;-65
2022/07/03 08:14:04;;;;;;;2.20;2.00;;;22.00;59.00;;;;;;4866667;29;20206;-67
2022/07/03 08:16:31;;;;;;;2.83;2.37;;;22.10;58.90;;;;;;4867158;29;20290;-62
2022/07/03 08:18:56;;;;;;;2.80;2.40;;;22.00;58.70;;;;;;4858429;29;20282;-63
2022/07/03 08:21:22;;;;;;;3.20;2.23;;;22.20;58.70;;;;;;4878640;29;20293;-62
2022/07/03 08:23:48;;;;;;;2.17;1.97;;;22.20;60.30;;;;;;4866231;29;20247;-63
2022/07/03 08:26:14;;;;;;;4.03;2.40;;;22.20;61.50;;;;;;4851756;29;20231;-62
2022/07/03 08:28:39;;;;;;;2.77;2.43;;;22.20;60.80;;;;;;4865403;29;20246;-66
2022/07/03 08:31:05;;;;;;;2.20;2.00;;;22.10;60.60;;;;;;4851343;29;20287;-66
2022/07/03 08:33:32;;;;;;;2.67;2.37;;;22.20;58.30;;;;;;4851649;29;20242;-69
2022/07/03 08:35:58;;;;;;;3.30;2.70;;;22.20;60.00;;;;;;4849101;29;20216;-63
2022/07/03 08:38:30;;;;;;;2.30;2.10;;;22.20;60.20;;;;;;4866375;29;20228;-62
2022/07/03 08:40:59;;;;;;;2.73;2.43;;;22.20;59.90;;;;;;4891675;29;20192;-63
2022/07/03 08:43:25;;;;;;;2.30;2.10;;;22.30;58.40;;;;;;4881819;29;20195;-62
2022/07/03 08:45:50;;;;;;;3.90;2.13;;;22.50;59.20;;;;;;4882551;29;20195;-62
2022/07/03 08:48:19;;;;;;;2.43;2.23;;;22.50;59.00;;;;;;4857415;29;20261;-62
2022/07/03 08:50:46;;;;;;;3.40;2.20;;;22.60;58.20;;;;;;4878992;29;20206;-62
2022/07/03 08:53:12;;;;;;;3.83;2.43;;;22.80;59.70;;;;;;4876557;29;20208;-61
2022/07/03 08:55:38;;;;;;;2.93;2.33;;;22.90;58.10;;;;;;4866669;29;20196;-61
2022/07/03 08:58:08;;;;;;;2.17;2.07;;;22.90;56.80;;;;;;4879790;29;20188;-61
2022/07/03 09:00:35;;;;;;;2.70;2.30;;;22.90;57.20;;;;;;4881005;29;20219;-62
2022/07/03 09:03:04;;;;;;;3.47;2.03;;;22.90;57.90;;;;;;4866179;29;20269;-62
2022/07/03 09:05:30;;;;;;;2.37;2.17;;;23.00;58.50;;;;;;4851762;29;20257;-62
2022/07/03 09:07:59;;;;;;;2.53;2.33;;;23.00;59.70;;;;;;4863852;29;20200;-62
2022/07/03 09:10:24;;;;;;;2.20;2.10;;;23.00;60.80;;;;;;4878118;29;20192;-62
2022/07/03 09:12:50;;;;;;;3.33;2.43;;;23.00;61.20;;;;;;4881295;29;20291;-61
2022/07/03 09:15:16;;;;;;;3.07;2.33;;;23.20;61.50;;;;;;4873931;29;20282;-62
2022/07/03 09:18:02;;;;;;;2.23;2.03;;;23.30;60.80;;;;;;4869436;29;20199;-62
2022/07/03 09:20:40;;;;;;;2.90;2.60;;;23.30;60.00;;;;;;4879557;29;20240;-62
2022/07/03 09:23:17;;;;;;;2.77;1.90;;;23.30;59.80;;;;;;4873801;29;20199;-62
2022/07/03 09:25:56;;;;;;;3.30;2.50;;;23.40;60.60;;;;;;4882026;29;20184;-61
2022/07/03 09:28:43;;;;;;;2.63;2.40;;;23.40;59.50;;;;;;4866031;29;20236;-62
2022/07/03 09:31:11;;;;;;;2.93;2.63;;;23.60;58.70;;;;;;4880817;29;20219;-62
2022/07/03 09:33:49;;;;;;;2.70;2.40;;;23.80;58.40;;;;;;4882016;29;20196;-62
2022/07/03 09:36:15;;;;;;;2.10;2.00;;;23.90;59.60;;;;;;4881517;29;20216;-65
2022/07/03 09:38:45;;;;;;;2.27;2.07;;;23.90;59.50;;;;;;4880510;29;20227;-63
2022/07/03 09:41:11;;;;;;;2.60;2.20;;;24.00;57.40;;;;;;4888562;29;20264;-63
2022/07/03 09:43:42;;;;;;;2.23;2.03;;;24.20;57.60;;;;;;4881808;29;20199;-63
2022/07/03 09:46:07;;;;;;;5.03;2.10;;;24.20;59.00;;;;;;4858036;29;20208;-62
2022/07/03 09:48:41;;;;;;;2.03;1.83;;;24.20;58.00;;;;;;4869404;29;20192;-62
2022/07/03 09:51:26;;;;;;;2.80;2.20;;;24.10;58.30;;;;;;4874141;29;20298;-66
2022/07/03 09:53:59;;;;;;;2.43;2.23;;;24.20;59.30;;;;;;4884337;29;20282;-66
2022/07/03 09:56:27;;;;;;;2.47;2.27;;;24.50;58.00;;;;;;4867462;29;20223;-62
2022/07/03 09:59:22;;;;;;;2.53;2.33;;;24.50;59.20;;;;;;4882195;29;20184;-63
2022/07/03 10:01:48;;;;;;;2.97;2.33;;;24.50;59.90;;;;;;4863976;29;20203;-63
2022/07/03 10:04:21;;;;;;;3.70;2.90;;;24.60;59.90;;;;;;4864720;29;20199;-63
2022/07/03 10:06:50;;;;;;;3.03;2.10;;;24.60;57.00;;;;;;4858668;29;20196;-64
2022/07/03 10:09:18;;;;;;;2.53;2.30;;;24.70;61.40;;;;;;4878116;29;20192;-63
2022/07/03 10:11:44;;;;;;;2.87;2.53;;;24.80;57.80;;;;;;4855825;29;20235;-62
2022/07/03 10:14:15;;;;;;;4.67;2.63;;;24.90;58.20;;;;;;4858027;29;20219;-61
2022/07/03 10:16:41;;;;;;;12.67;3.63;;;25.00;56.10;;;;;;4876706;29;20227;-62
2022/07/03 10:19:21;;;;;;;4.30;4.00;;;25.00;57.20;;;;;;4871872;29;20202;-62
2022/07/03 10:21:55;;;;;;;3.70;3.40;;;25.10;55.90;;;;;;4877350;29;20187;-62
2022/07/03 10:24:23;;;;;;;68.27;62.23;;;25.10;55.00;;;;;;4872399;29;20233;-62
2022/07/03 10:26:50;;;;;;;8.27;7.40;;;25.20;57.10;;;;;;4859659;29;20272;-62
2022/07/03 10:29:16;;;;;;;7.57;6.77;;;25.20;59.20;;;;;;4877710;29;20224;-62
2022/07/03 10:31:45;;;;;;;7.67;6.87;;;25.30;59.40;;;;;;4874589;29;20215;-62
2022/07/03 10:34:12;;;;;;;5.83;3.10;;;25.40;59.40;;;;;;4870263;29;20283;-61
2022/07/03 10:36:39;;;;;;;4.33;3.63;;;25.60;57.40;;;;;;4866388;29;20269;-62
2022/07/03 10:39:06;;;;;;;3.33;2.73;;;25.60;54.40;;;;;;4855012;29;20225;-62
2022/07/03 10:47:37;;;;;;;2.73;2.30;;;25.90;53.00;;;;;;4877644;29;20208;-62
2022/07/03 10:50:06;;;;;;;30.67;27.83;;;26.20;53.60;;;;;;4872965;29;20207;-61
2022/07/03 10:52:32;;;;;;;25.70;20.30;;;26.20;54.40;;;;;;4880413;29;20242;-61
2022/07/03 10:54:59;;;;;;;979.10;500.73;;;26.30;57.40;;;;;;4850146;29;20220;-61
2022/07/03 10:57:25;;;;;;;379.13;257.33;;;26.20;58.50;;;;;;4846052;29;20227;-61
2022/07/03 10:59:51;;;;;;;112.63;89.93;;;26.20;58.40;;;;;;4847615;29;20196;-59
2022/07/03 11:02:40;;;;;;;150.97;119.47;;;26.20;57.80;;;;;;4876653;29;20211;-58
2022/07/03 11:05:20;;;;;;;7.10;6.50;;;26.20;60.30;;;;;;4883194;29;20286;-60
2022/07/03 11:07:55;;;;;;;7.63;2.63;;;26.60;55.80;;;;;;4889216;29;20196;-60
2022/07/03 11:10:23;;;;;;;4.20;3.30;;;26.60;55.10;;;;;;4883215;29;20206;-60
2022/07/03 11:13:05;;;;;;;3.03;2.60;;;26.80;58.30;;;;;;4883208;29;20242;-60
2022/07/03 11:15:31;;;;;;;5.83;2.90;;;26.90;56.50;;;;;;4876850;29;20199;-59
2022/07/03 11:18:23;;;;;;;4.67;2.73;;;27.40;52.20;;;;;;4876877;29;20244;-60
2022/07/03 11:20:49;;;;;;;7.10;3.20;;;27.30;54.00;;;;;;4849719;29;20245;-59
2022/07/03 11:23:30;;;;;;;4.67;2.63;;;27.60;53.70;;;;;;4873637;29;20223;-59
2022/07/03 11:26:20;;;;;;;2.97;2.70;;;27.80;52.60;;;;;;4870477;29;20215;-59
2022/07/03 11:28:45;;;;;;;5.17;3.60;;;27.90;51.50;;;;;;4867596;29;20228;-60
2022/07/03 11:31:13;;;;;;;27.43;14.67;;;28.00;54.10;;;;;;4882855;29;20222;-60
2022/07/03 11:33:42;;;;;;;19.10;13.03;;;28.00;52.40;;;;;;4880720;29;20189;-59
2022/07/03 11:36:17;;;;;;;18.73;10.87;;;27.70;54.20;;;;;;4869237;29;20204;-59
2022/07/03 11:39:03;;;;;;;14.40;8.37;;;27.60;55.80;;;;;;4871908;29;20180;-59
2022/07/03 11:41:29;;;;;;;24.63;12.93;;;27.60;57.40;;;;;;4877244;29;20196;-59
2022/07/03 11:44:03;;;;;;;7.13;4.73;;;27.50;57.50;;;;;;4872603;29;20320;-59
2022/07/03 11:46:31;;;;;;;12.53;8.90;;;27.50;54.30;;;;;;4874041;29;20284;-59
2022/07/03 11:49:08;;;;;;;5.10;3.87;;;27.60;55.90;;;;;;4877388;29;20245;-59
2022/07/03 11:51:35;;;;;;;13.20;7.70;;;27.90;52.50;;;;;;4888832;29;20306;-59
2022/07/03 11:54:01;;;;;;;6.63;4.93;;;28.00;54.80;;;;;;4876693;29;20261;-59
2022/07/03 11:56:28;;;;;;;4.33;2.77;;;28.10;54.80;;;;;;4861532;29;20200;-59
2022/07/03 11:58:59;;;;;;;5.30;3.83;;;28.10;55.10;;;;;;4876177;29;20199;-59
2022/07/03 12:01:30;;;;;;;7.43;4.23;;;28.40;54.50;;;;;;4875787;29;20207;-59
2022/07/03 12:04:12;;;;;;;5.30;3.53;;;28.70;53.40;;;;;;4889364;29;20220;-59
2022/07/03 12:06:42;;;;;;;3.10;2.37;;;28.80;51.80;;;;;;4879349;29;20192;-65
2022/07/03 12:09:24;;;;;;;2.40;2.20;;;29.20;50.00;;;;;;4882286;29;20195;-59
2022/07/03 12:11:58;;;;;;;2.30;2.10;;;30.10;50.00;;;;;;4896368;29;20295;-58
2022/07/03 12:14:44;;;;;;;3.07;1.93;;;30.80;46.10;;;;;;4897835;29;20182;-59
2022/07/03 12:17:27;;;;;;;3.00;2.23;;;31.50;44.20;;;;;;4886635;29;20191;-59
2022/07/03 12:20:01;;;;;;;2.90;2.13;;;32.40;42.10;;;;;;4869585;29;20221;-59
2022/07/03 12:22:31;;;;;;;3.73;2.23;;;33.00;39.50;;;;;;4852787;29;20199;-59
2022/07/03 12:25:08;;;;;;;2.30;2.10;;;33.70;39.10;;;;;;4875687;29;20192;-59
2022/07/03 12:27:38;;;;;;;2.57;2.37;;;34.50;38.70;;;;;;4886194;29;20255;-59
2022/07/03 12:30:07;;;;;;;2.87;2.33;;;35.30;39.70;;;;;;4874708;29;20237;-60
2022/07/03 12:32:32;;;;;;;2.20;2.00;;;36.10;38.20;;;;;;4859337;29;20318;-59
2022/07/03 12:34:59;;;;;;;2.03;1.90;;;36.70;35.70;;;;;;4874643;29;20279;-59
2022/07/03 12:37:36;;;;;;;1.97;1.87;;;37.00;34.90;;;;;;4857756;29;20192;-59
2022/07/03 12:40:03;;;;;;;2.27;2.07;;;37.20;33.10;;;;;;4873395;29;20205;-60
2022/07/03 12:42:28;;;;;;;3.30;1.80;;;37.70;35.40;;;;;;4860393;29;20295;-60
2022/07/03 12:44:55;;;;;;;2.80;2.00;;;38.20;33.30;;;;;;4875463;29;20286;-60
2022/07/03 12:47:21;;;;;;;1.77;1.67;;;38.40;31.80;;;;;;4860349;29;20195;-60
2022/07/03 12:49:53;;;;;;;3.10;2.07;;;38.70;31.80;;;;;;4879842;29;20257;-60
2022/07/03 12:52:19;;;;;;;3.90;1.90;;;38.90;32.50;;;;;;4863218;29;20220;-59
2022/07/03 12:54:44;;;;;;;2.20;2.00;;;38.80;31.40;;;;;;4861879;29;20195;-59
2022/07/03 13:00:07;;;;;;;2.50;2.30;;;38.80;31.10;;;;;;4872455;29;20198;-59
2022/07/03 13:02:34;;;;;;;1.77;1.60;;;39.10;31.00;;;;;;4877225;29;20199;-59
2022/07/03 13:05:00;;;;;;;1.88;1.77;;;39.40;29.40;;;;;;4854334;29;20188;-59
2022/07/03 13:07:30;;;;;;;2.55;1.83;;;39.50;31.50;;;;;;4877291;29;20198;-59
2022/07/03 13:10:01;;;;;;;4.15;2.03;;;39.50;32.70;;;;;;4873923;29;20203;-59
2022/07/03 13:12:27;;;;;;;2.10;1.95;;;39.50;29.60;;;;;;4854996;29;20242;-59
2022/07/03 13:14:57;;;;;;;4.93;1.92;;;39.50;30.50;;;;;;4865194;29;20231;-59